الصفحة الرئيسية
METAR-TAF:

METAR-TAF

مطار :

جزيرة جروت آيلاند, أستراليا

دائرة عرض: 13-58-30S, خط طول: 136-27-36E, ارتفاع: 16 متر

مراقبة الطقس الحالي

تاريخ ووقت الإصدار 20 دقيقة قبل الساعة 05:00UTC
ريح 4 عقدة من الشمال الشرقي, الاتجاه يتراوح بين الشمال و الشرق
درجة الحرارة 31°درجة مئوية
الرطوبة 59%
ضغط 1008 hPa
الرؤية 10 كم أو أكثر
غيوم مفككة على ارتفاع 4300 قدم
غيوم مفككة على ارتفاع 4900 قدم
ملبد بالغيوم على ارتفاع 8600 قدم

METAR: YGTE 140500Z AUTO 04004KT 010V080 9999 // BKN043 BKN049 OVC086 31/22 Q1008

زمن: 14:50 (05:20 UTC)


TAF: مفقودة

أرصاد الطقس والتوقعات من أكثر من 4000 مطار (تقارير الطقس للمطار METAR والتنبؤ بالطقس بالمطارTAF).

المحطات المتاحة هي النقط الصفراء والحمراء على الخريطة.

حرك المؤشر فوق النقطة لمعرفة اسم المحطة.

ثم انقر لمعرفة أرصاد وتوقعات الطقس.

لتغيير الخارطة: اضغط على الأزرار الخضراء مع رمز الصليب الأسود للتكبير. على الزر الأخضر مع شرطة للتصغير، أو على الأسهم الخضراء للخرائط المجاورة.


METAR-TAF: